Relevés horaires Antwerpen / Deurne (Belgique)


Relevés horaires à Antwerpen / Deurne - Vendredi 26 Mai 2017
Heure UTC1 Température [°C] Vent [km/h] Hum. [%] Pres.4 [hPa] Visi. [Km] Nébu. [octa] Préc.5 [mm] Cond.
2m. Res. Ros. Dir.2 Vit. Moy. Raf.3
23:00 19.4 19.4 12.6 ESE 5.6 9.3 14.8 65 1017.4(0.4/3h) 45 0/8 -- --
22:00 21.9 21.9 12.1 E 9.3 9.3 13.0 54 1017(0.4/3h) 45 0/8 -- --
21:00 20.9 20.9 11.4 E 5.6 11.1 14.8 55 1017.2(0.4/3h) 30 0/8 -- --
20:00 23.0 23.0 10.0 E 7.4 9.3 14.8 44 1017(-0.4/3h) 30 0/8 -- --
19:00 25.2 25.2 10.0 E 9.3 11.1 14.8 38 1016.6(-1.2/3h) 30 0/8 -- --
18:00 26.3 26.3 10.3 E 9.3 11.1 18.5 37 1016.9(-1.3/3h) 30 0/8 trace/12h
--
17:00 27.1 27.1 10.4 E 9.3 11.1 16.7 35 1017.3(-1.5/3h) 30 0/8 -- --
16:00 27.3 27.3 9.8 ESE 9.3 11.1 18.5 33 1017.8(-1.9/3h) 30 0/8 -- --
15:00 27.3 27.3 9.7 ESE 11.1 11.1 18.5 33 1018.1(-2.0/3h) 30 0/8 -- --
14:00 27.1 27.1 9.5 ESE 11.1 11.1 18.5 33 1018.9(-2.0/3h) 30 0/8 -- --
13:00 26.3 26.3 10.3 SE 9.3 11.1 18.5 37 1019.6(-1.8/3h) 30 0/8 -- --
12:00 25.9 25.9 11.8 ESE 9.3 11.1 18.5 41 1020.2(-1.9/3h) 30 0/8 trace/6h
--
11:00 24.5 24.5 11.8 E 9.3 11.1 16.7 45 1020.9(-1.6/3h) 30 0/8 -- --
10:00 22.9 22.9 12.3 E 9.3 11.1 16.7 51 1021.5(-1.1/3h) 30 1/8 -- --
09:00 22.1 22.1 13.0 E 9.3 11.1 16.7 56 1022.1(-0.3/3h) 30 1/8 -- --
08:00 20.5 20.5 13.0 E 9.3 9.3 13.0 62 1022.5(0.2/3h) 30 1/8 -- --
07:00 18.9 18.9 13.2 E 7.4 9.3 11.1 69 1022.6(-0.1/3h) 30 0/8 -- --
06:00 17.0 17.0 13.0 E 5.6 5.6 9.3 77 1022.4(0.1/3h) 30 0/8 0.1/12h
--
05:00 15.2 15.2 12.4 E 5.6 5.6 9.3 83 1022.3(0.3/3h) 30 0/8 -- --
04:00 14.4 14.4 12.0 ENE 5.6 5.6 7.4 85 1022.5(0.3/3h) 24 0/8 -- --
03:00 14.6 14.6 11.9 ENE 3.7 5.6 7.4 84 1022.3(-0.2/3h) 30 0/8 -- --
02:00 14.7 14.7 11.8 E 5.6 5.6 7.4 83 1022(-0.6/3h) 30 0/8 -- --
01:00 15.9 15.9 12.5 ENE 5.6 5.6 7.4 80 1022.1(-0.5/3h) 30 0/8 -- --
00:00 16.5 16.5 12.1 NE 1.9 9.3 13.0 75 1022.6(0.1/3h) 40 0/8 0/6h
trace/24h
--

1 Coordinated Universal Time. Actuellement il est 23:00 locale et 22:00 UTC.

2 Le vent souffle depuis la direction indiquée vers la direction oposée.

3 Les rafales max. sont disponible 40 min après l'heure du relevé.

4 Pour les stations d'altitude (plus de 600m) le géopotentiel du niveau le plus proche de la pression obligatoire est indiqué.

5 Les stations disposant d'un diffuseur peuvent indiquer "trace". Cela signifie que des précipitations ont touchés le sol mais que la quantité est inférieure à 0.1 mm.

Récapitulatif de la journée
Température [°C] Vent [km/h] Ensoleillement4 [h] Precipitations totale5 [mm] Pression [Hpa]
Min1 Max.2 Moy.3 Max. Min Max.
13.9 27.6 9.3 18.5 0 h 0 min 0.1 1016.6 1022.6

1 Température minimale relevée entre 18:00 UTC la veille et 18:00 UTC le jour donné.

2 Température maximale relevée entre 06:00 UTC le jour donné et 06:00 UTC le lendemain.

3 Vent moyen de la journée basé sur les relevés horaires.

4 Ensoleillement en heures relevé entre 06:00 UTC la veille et 06:00 UTC le jour donné.

5 Précipitations totales tombées entre 06:00 UTC la jour donné et 06:00 UTC le lendemain.

Graphiques horaires